sensor_id;sensor_type;location;lat;lon;timestamp;pressure;altitude;pressure_sealevel;temperature;humidity
27643;BME280;15053;48.618;10.024;2023-05-19T00:01:13;94731.13;;;11.77;68.01
27643;BME280;15053;48.618;10.024;2023-05-19T00:03:49;94736.63;;;11.76;68.13
27643;BME280;15053;48.618;10.024;2023-05-19T00:06:25;94730.91;;;11.74;68.55
27643;BME280;15053;48.618;10.024;2023-05-19T00:09:05;94728.91;;;11.66;68.31
27643;BME280;15053;48.618;10.024;2023-05-19T00:11:34;94720.78;;;11.67;68.52
27643;BME280;15053;48.618;10.024;2023-05-19T00:14:06;94722.34;;;11.68;68.37
27643;BME280;15053;48.618;10.024;2023-05-19T00:16:33;94717.66;;;11.70;68.78
27643;BME280;15053;48.618;10.024;2023-05-19T00:19:02;94715.81;;;11.71;68.79
27643;BME280;15053;48.618;10.024;2023-05-19T00:21:29;94705.44;;;11.66;68.82
27643;BME280;15053;48.618;10.024;2023-05-19T00:23:57;94704.34;;;11.72;68.66
27643;BME280;15053;48.618;10.024;2023-05-19T00:26:24;94707.44;;;11.74;69.20
27643;BME280;15053;48.618;10.024;2023-05-19T00:29:03;94714.78;;;11.72;69.11
27643;BME280;15053;48.618;10.024;2023-05-19T00:31:29;94718.97;;;11.68;68.85
27643;BME280;15053;48.618;10.024;2023-05-19T00:33:57;94708.53;;;11.68;69.21
27643;BME280;15053;48.618;10.024;2023-05-19T00:36:24;94713.75;;;11.68;68.98
27643;BME280;15053;48.618;10.024;2023-05-19T00:38:51;94709.31;;;11.68;69.16
27643;BME280;15053;48.618;10.024;2023-05-19T00:41:18;94701.25;;;11.65;69.56
27643;BME280;15053;48.618;10.024;2023-05-19T00:43:44;94706.69;;;11.68;69.71
27643;BME280;15053;48.618;10.024;2023-05-19T00:46:11;94704.66;;;11.65;69.56
27643;BME280;15053;48.618;10.024;2023-05-19T00:48:38;94703.66;;;11.61;69.40
27643;BME280;15053;48.618;10.024;2023-05-19T00:51:04;94700.84;;;11.58;69.89
27643;BME280;15053;48.618;10.024;2023-05-19T00:53:33;94691.25;;;11.53;69.81
27643;BME280;15053;48.618;10.024;2023-05-19T00:56:00;94701.41;;;11.55;69.97
27643;BME280;15053;48.618;10.024;2023-05-19T00:58:29;94688.66;;;11.53;69.96
27643;BME280;15053;48.618;10.024;2023-05-19T01:00:57;94679.81;;;11.49;69.81
27643;BME280;15053;48.618;10.024;2023-05-19T01:03:34;94685.59;;;11.46;70.09
27643;BME280;15053;48.618;10.024;2023-05-19T01:06:02;94690.88;;;11.41;70.27
27643;BME280;15053;48.618;10.024;2023-05-19T01:08:33;94687.00;;;11.39;70.29
27643;BME280;15053;48.618;10.024;2023-05-19T01:11:01;94679.97;;;11.39;70.25
27643;BME280;15053;48.618;10.024;2023-05-19T01:13:28;94682.06;;;11.37;69.95
27643;BME280;15053;48.618;10.024;2023-05-19T01:18:37;94685.03;;;11.31;70.61
27643;BME280;15053;48.618;10.024;2023-05-19T01:21:17;94687.41;;;11.27;70.64
27643;BME280;15053;48.618;10.024;2023-05-19T01:23:51;94683.31;;;11.21;70.68
27643;BME280;15053;48.618;10.024;2023-05-19T01:26:46;94682.31;;;11.17;70.59
27643;BME280;15053;48.618;10.024;2023-05-19T01:29:31;94681.84;;;11.15;71.06
27643;BME280;15053;48.618;10.024;2023-05-19T01:32:06;94682.88;;;11.14;70.84
27643;BME280;15053;48.618;10.024;2023-05-19T01:34:42;94685.56;;;11.09;71.32
27643;BME280;15053;48.618;10.024;2023-05-19T01:37:10;94688.16;;;11.09;71.12
27643;BME280;15053;48.618;10.024;2023-05-19T01:39:38;94692.88;;;11.07;71.51
27643;BME280;15053;48.618;10.024;2023-05-19T01:42:06;94694.41;;;11.08;71.50
27643;BME280;15053;48.618;10.024;2023-05-19T01:44:34;94687.88;;;11.10;71.58
27643;BME280;15053;48.618;10.024;2023-05-19T01:47:01;94691.56;;;11.09;71.73
27643;BME280;15053;48.618;10.024;2023-05-19T01:49:27;94688.88;;;11.14;71.88
27643;BME280;15053;48.618;10.024;2023-05-19T01:51:54;94691.97;;;11.16;71.70
27643;BME280;15053;48.618;10.024;2023-05-19T01:54:21;94693.72;;;11.21;71.72
27643;BME280;15053;48.618;10.024;2023-05-19T01:57:08;94690.09;;;11.22;71.61
27643;BME280;15053;48.618;10.024;2023-05-19T02:00:10;94689.53;;;11.25;71.69
27643;BME280;15053;48.618;10.024;2023-05-19T02:05:24;94692.41;;;11.23;71.78
27643;BME280;15053;48.618;10.024;2023-05-19T02:08:13;94692.19;;;11.20;71.79
27643;BME280;15053;48.618;10.024;2023-05-19T02:10:44;94700.03;;;11.20;71.44
27643;BME280;15053;48.618;10.024;2023-05-19T02:13:17;94696.91;;;11.18;71.70
27643;BME280;15053;48.618;10.024;2023-05-19T02:15:46;94690.16;;;11.17;71.86
27643;BME280;15053;48.618;10.024;2023-05-19T02:18:14;94685.44;;;11.19;71.49
27643;BME280;15053;48.618;10.024;2023-05-19T02:20:43;94690.63;;;11.19;71.63
27643;BME280;15053;48.618;10.024;2023-05-19T02:23:09;94689.06;;;11.18;71.47
27643;BME280;15053;48.618;10.024;2023-05-19T02:25:36;94680.84;;;11.11;71.85
27643;BME280;15053;48.618;10.024;2023-05-19T02:28:04;94684.00;;;11.08;71.95
27643;BME280;15053;48.618;10.024;2023-05-19T02:30:32;94679.84;;;11.07;71.69
27643;BME280;15053;48.618;10.024;2023-05-19T02:32:59;94674.63;;;11.07;71.89
27643;BME280;15053;48.618;10.024;2023-05-19T02:35:26;94670.47;;;11.06;71.80
27643;BME280;15053;48.618;10.024;2023-05-19T02:37:53;94665.53;;;11.04;71.82
27643;BME280;15053;48.618;10.024;2023-05-19T02:40:20;94664.00;;;11.03;71.60
27643;BME280;15053;48.618;10.024;2023-05-19T02:42:48;94659.25;;;11.05;71.76
27643;BME280;15053;48.618;10.024;2023-05-19T02:45:15;94654.28;;;11.09;71.43
27643;BME280;15053;48.618;10.024;2023-05-19T02:47:41;94651.19;;;11.07;71.58
27643;BME280;15053;48.618;10.024;2023-05-19T02:50:08;94658.72;;;11.08;71.49
27643;BME280;15053;48.618;10.024;2023-05-19T02:52:34;94654.84;;;11.06;71.50
27643;BME280;15053;48.618;10.024;2023-05-19T02:55:01;94651.94;;;11.07;71.18
27643;BME280;15053;48.618;10.024;2023-05-19T02:57:28;94650.66;;;11.05;71.34
27643;BME280;15053;48.618;10.024;2023-05-19T02:59:55;94648.06;;;11.05;71.32
27643;BME280;15053;48.618;10.024;2023-05-19T03:02:21;94649.88;;;11.04;71.07
27643;BME280;15053;48.618;10.024;2023-05-19T03:04:48;94646.53;;;11.04;71.01
27643;BME280;15053;48.618;10.024;2023-05-19T03:07:15;94656.41;;;11.07;71.11
27643;BME280;15053;48.618;10.024;2023-05-19T03:09:41;94652.72;;;11.08;71.32
27643;BME280;15053;48.618;10.024;2023-05-19T03:12:08;94651.75;;;11.04;71.56
27643;BME280;15053;48.618;10.024;2023-05-19T03:14:35;94652.50;;;11.04;71.20
27643;BME280;15053;48.618;10.024;2023-05-19T03:17:04;94650.19;;;11.03;71.21
27643;BME280;15053;48.618;10.024;2023-05-19T03:19:33;94661.38;;;11.03;71.19
27643;BME280;15053;48.618;10.024;2023-05-19T03:22:00;94661.09;;;11.05;71.52
27643;BME280;15053;48.618;10.024;2023-05-19T03:24:26;94657.94;;;11.08;71.24
27643;BME280;15053;48.618;10.024;2023-05-19T03:26:53;94655.53;;;11.11;71.00
27643;BME280;15053;48.618;10.024;2023-05-19T03:29:20;94651.19;;;11.07;71.31
27643;BME280;15053;48.618;10.024;2023-05-19T03:31:47;94648.63;;;11.02;71.47
27643;BME280;15053;48.618;10.024;2023-05-19T03:34:15;94651.75;;;11.04;71.19
27643;BME280;15053;48.618;10.024;2023-05-19T03:36:41;94652.50;;;11.04;71.29
27643;BME280;15053;48.618;10.024;2023-05-19T03:39:14;94655.38;;;11.03;71.18
27643;BME280;15053;48.618;10.024;2023-05-19T03:41:41;94653.06;;;11.01;71.30
27643;BME280;15053;48.618;10.024;2023-05-19T03:44:07;94646.78;;;11.02;71.74
27643;BME280;15053;48.618;10.024;2023-05-19T03:46:34;94644.47;;;11.01;71.28
27643;BME280;15053;48.618;10.024;2023-05-19T03:49:06;94649.41;;;11.02;71.58
27643;BME280;15053;48.618;10.024;2023-05-19T03:51:52;94646.78;;;11.02;71.39
27643;BME280;15053;48.618;10.024;2023-05-19T03:54:29;94655.94;;;11.00;71.52
27643;BME280;15053;48.618;10.024;2023-05-19T03:56:57;94653.81;;;11.02;71.57
27643;BME280;15053;48.618;10.024;2023-05-19T03:59:23;94666.38;;;11.00;71.86
27643;BME280;15053;48.618;10.024;2023-05-19T04:01:50;94659.03;;;11.02;71.52
27643;BME280;15053;48.618;10.024;2023-05-19T04:04:16;94660.59;;;11.03;71.69
27643;BME280;15053;48.618;10.024;2023-05-19T04:06:44;94655.63;;;11.06;71.77
27643;BME280;15053;48.618;10.024;2023-05-19T04:09:12;94649.63;;;11.06;71.22
27643;BME280;15053;48.618;10.024;2023-05-19T04:11:40;94650.88;;;11.08;71.46
27643;BME280;15053;48.618;10.024;2023-05-19T04:14:07;94655.81;;;11.10;71.30
27643;BME280;15053;48.618;10.024;2023-05-19T04:16:35;94653.50;;;11.08;70.92
27643;BME280;15053;48.618;10.024;2023-05-19T04:19:02;94648.63;;;11.02;71.74
27643;BME280;15053;48.618;10.024;2023-05-19T04:21:28;94649.41;;;11.02;71.29
27643;BME280;15053;48.618;10.024;2023-05-19T04:23:55;94658.00;;;11.03;71.17
27643;BME280;15053;48.618;10.024;2023-05-19T04:26:25;94650.66;;;11.05;71.66
27643;BME280;15053;48.618;10.024;2023-05-19T04:28:52;94650.47;;;11.01;71.72
27643;BME280;15053;48.618;10.024;2023-05-19T04:31:19;94654.59;;;11.02;71.80
27643;BME280;15053;48.618;10.024;2023-05-19T04:33:47;94659.25;;;11.05;71.55
27643;BME280;15053;48.618;10.024;2023-05-19T04:36:14;94654.84;;;11.06;71.87
27643;BME280;15053;48.618;10.024;2023-05-19T04:38:44;94656.41;;;11.07;71.89
27643;BME280;15053;48.618;10.024;2023-05-19T04:41:12;94646.53;;;11.04;71.81
27643;BME280;15053;48.618;10.024;2023-05-19T04:43:39;94649.63;;;11.06;71.72
27643;BME280;15053;48.618;10.024;2023-05-19T04:46:10;94648.34;;;11.03;72.14
27643;BME280;15053;48.618;10.024;2023-05-19T04:48:41;94653.81;;;11.02;72.15
27643;BME280;15053;48.618;10.024;2023-05-19T04:51:08;94650.19;;;11.03;72.18
27643;BME280;15053;48.618;10.024;2023-05-19T04:53:34;94645.97;;;11.07;72.65
27643;BME280;15053;48.618;10.024;2023-05-19T04:56:08;94643.84;;;11.09;72.58
27643;BME280;15053;48.618;10.024;2023-05-19T04:58:35;94651.13;;;11.12;72.43
27643;BME280;15053;48.618;10.024;2023-05-19T05:01:05;94648.50;;;11.12;72.57
27643;BME280;15053;48.618;10.024;2023-05-19T05:03:32;94651.59;;;11.14;72.52
27643;BME280;15053;48.618;10.024;2023-05-19T05:06:00;94655.47;;;11.16;72.46
27643;BME280;15053;48.618;10.024;2023-05-19T05:08:26;94661.41;;;11.22;72.37
27643;BME280;15053;48.618;10.024;2023-05-19T05:10:53;94659.81;;;11.26;72.46
27643;BME280;15053;48.618;10.024;2023-05-19T05:13:22;94662.91;;;11.28;72.75
27643;BME280;15053;48.618;10.024;2023-05-19T05:15:49;94661.19;;;11.37;72.61
27643;BME280;15053;48.618;10.024;2023-05-19T05:18:21;94651.78;;;11.41;72.34
27643;BME280;15053;48.618;10.024;2023-05-19T05:20:48;94650.44;;;11.44;72.31
27643;BME280;15053;48.618;10.024;2023-05-19T05:23:15;94650.66;;;11.47;72.42
27643;BME280;15053;48.618;10.024;2023-05-19T05:25:45;94641.34;;;11.41;72.32
27643;BME280;15053;48.618;10.024;2023-05-19T05:28:13;94655.88;;;11.47;72.21
27643;BME280;15053;48.618;10.024;2023-05-19T05:30:41;94651.63;;;11.51;72.38
27643;BME280;15053;48.618;10.024;2023-05-19T05:33:08;94640.06;;;11.57;72.13
27643;BME280;15053;48.618;10.024;2023-05-19T05:35:37;94642.88;;;11.61;71.89
27643;BME280;15053;48.618;10.024;2023-05-19T05:38:06;94648.81;;;11.66;71.39
27643;BME280;15053;48.618;10.024;2023-05-19T05:40:35;94652.41;;;11.70;71.59
27643;BME280;15053;48.618;10.024;2023-05-19T05:43:02;94648.28;;;11.69;71.47
27643;BME280;15053;48.618;10.024;2023-05-19T05:45:33;94653.69;;;11.73;71.37
27643;BME280;15053;48.618;10.024;2023-05-19T05:48:00;94657.06;;;11.73;70.70
27643;BME280;15053;48.618;10.024;2023-05-19T05:50:29;94639.72;;;11.64;70.78
27643;BME280;15053;48.618;10.024;2023-05-19T05:52:57;94653.56;;;11.83;70.66
27643;BME280;15053;48.618;10.024;2023-05-19T05:55:26;94654.34;;;11.83;70.51
27643;BME280;15053;48.618;10.024;2023-05-19T05:57:54;94653.19;;;11.90;70.30
27643;BME280;15053;48.618;10.024;2023-05-19T06:00:22;94648.88;;;11.99;70.57
27643;BME280;15053;48.618;10.024;2023-05-19T06:02:51;94659.72;;;12.06;69.79
27643;BME280;15053;48.618;10.024;2023-05-19T06:05:18;94645.13;;;12.05;69.40
27643;BME280;15053;48.618;10.024;2023-05-19T06:07:46;94645.34;;;12.08;69.57
27643;BME280;15053;48.618;10.024;2023-05-19T06:10:18;94642.34;;;12.15;68.83
27643;BME280;15053;48.618;10.024;2023-05-19T06:12:46;94647.69;;;12.23;69.37
27643;BME280;15053;48.618;10.024;2023-05-19T06:15:13;94648.38;;;12.29;68.47
27643;BME280;15053;48.618;10.024;2023-05-19T06:17:59;94651.97;;;12.33;68.37
27643;BME280;15053;48.618;10.024;2023-05-19T06:20:26;94643.06;;;12.34;68.47
27643;BME280;15053;48.618;10.024;2023-05-19T06:22:54;94647.72;;;12.37;68.73
27643;BME280;15053;48.618;10.024;2023-05-19T06:25:23;94649.75;;;12.40;68.59
27643;BME280;15053;48.618;10.024;2023-05-19T06:27:50;94646.56;;;12.43;68.27
27643;BME280;15053;48.618;10.024;2023-05-19T06:30:17;94649.56;;;12.50;68.69
27643;BME280;15053;48.618;10.024;2023-05-19T06:32:59;94644.84;;;12.52;68.23
27643;BME280;15053;48.618;10.024;2023-05-19T06:35:26;94648.72;;;12.55;68.20
27643;BME280;15053;48.618;10.024;2023-05-19T06:37:53;94639.13;;;12.50;67.94
27643;BME280;15053;48.618;10.024;2023-05-19T06:40:22;94642.13;;;12.57;68.03
27643;BME280;15053;48.618;10.024;2023-05-19T06:42:48;94659.34;;;12.58;68.55
27643;BME280;15053;48.618;10.024;2023-05-19T06:45:23;94656.25;;;12.56;68.24
27643;BME280;15053;48.618;10.024;2023-05-19T06:47:50;94659.75;;;12.52;67.91
27643;BME280;15053;48.618;10.024;2023-05-19T06:50:17;94659.25;;;12.50;68.17
27643;BME280;15053;48.618;10.024;2023-05-19T06:52:47;94662.72;;;12.45;68.82
27643;BME280;15053;48.618;10.024;2023-05-19T06:55:14;94660.19;;;12.40;68.85
27643;BME280;15053;48.618;10.024;2023-05-19T06:57:41;94664.72;;;12.34;68.76
27643;BME280;15053;48.618;10.024;2023-05-19T07:00:08;94670.75;;;12.35;69.34
27643;BME280;15053;48.618;10.024;2023-05-19T07:02:45;94666.28;;;12.35;68.95
27643;BME280;15053;48.618;10.024;2023-05-19T07:05:12;94661.84;;;12.36;69.20
27643;BME280;15053;48.618;10.024;2023-05-19T07:07:39;94658.84;;;12.42;69.11
27643;BME280;15053;48.618;10.024;2023-05-19T07:10:11;94659.53;;;12.48;69.36
27643;BME280;15053;48.618;10.024;2023-05-19T07:12:38;94656.81;;;12.53;69.15
27643;BME280;15053;48.618;10.024;2023-05-19T07:15:05;94656.56;;;12.55;69.21
27643;BME280;15053;48.618;10.024;2023-05-19T07:17:33;94660.53;;;12.52;68.48
27643;BME280;15053;48.618;10.024;2023-05-19T07:20:00;94652.38;;;12.54;68.89
27643;BME280;15053;48.618;10.024;2023-05-19T07:22:27;94651.22;;;12.60;68.38
27643;BME280;15053;48.618;10.024;2023-05-19T07:24:54;94651.13;;;12.65;68.98
27643;BME280;15053;48.618;10.024;2023-05-19T07:27:22;94656.75;;;12.72;68.65
27643;BME280;15053;48.618;10.024;2023-05-19T07:29:48;94644.75;;;12.84;68.58
27643;BME280;15053;48.618;10.024;2023-05-19T07:32:15;94639.16;;;12.91;67.77
27643;BME280;15053;48.618;10.024;2023-05-19T07:34:41;94644.97;;;13.01;68.27
27643;BME280;15053;48.618;10.024;2023-05-19T07:37:08;94644.78;;;13.12;67.36
27643;BME280;15053;48.618;10.024;2023-05-19T07:39:35;94640.41;;;13.21;67.54
27643;BME280;15053;48.618;10.024;2023-05-19T07:42:01;94639.91;;;13.19;67.59
27643;BME280;15053;48.618;10.024;2023-05-19T07:44:28;94636.91;;;13.25;67.31
27643;BME280;15053;48.618;10.024;2023-05-19T07:46:56;94637.47;;;13.36;66.63
27643;BME280;15053;48.618;10.024;2023-05-19T07:49:23;94641.22;;;13.43;67.18
27643;BME280;15053;48.618;10.024;2023-05-19T07:51:49;94642.38;;;13.51;66.43
27643;BME280;15053;48.618;10.024;2023-05-19T07:54:16;94642.75;;;13.58;65.85
27643;BME280;15053;48.618;10.024;2023-05-19T07:56:42;94632.75;;;13.60;66.04
27643;BME280;15053;48.618;10.024;2023-05-19T07:59:09;94640.56;;;13.74;65.74
27643;BME280;15053;48.618;10.024;2023-05-19T08:01:35;94647.13;;;13.85;64.97
27643;BME280;15053;48.618;10.024;2023-05-19T08:04:02;94641.09;;;14.06;65.35
27643;BME280;15053;48.618;10.024;2023-05-19T08:06:29;94637.34;;;14.21;64.21
27643;BME280;15053;48.618;10.024;2023-05-19T08:08:57;94632.25;;;14.38;63.54
27643;BME280;15053;48.618;10.024;2023-05-19T08:11:23;94630.44;;;14.47;63.18
27643;BME280;15053;48.618;10.024;2023-05-19T08:13:50;94633.09;;;14.56;62.96
27643;BME280;15053;48.618;10.024;2023-05-19T08:16:16;94634.72;;;14.74;62.88
27643;BME280;15053;48.618;10.024;2023-05-19T08:18:43;94629.53;;;14.91;62.26
27643;BME280;15053;48.618;10.024;2023-05-19T08:21:10;94623.22;;;15.01;61.63
27643;BME280;15053;48.618;10.024;2023-05-19T08:23:37;94627.28;;;15.07;61.40
27643;BME280;15053;48.618;10.024;2023-05-19T08:26:04;94627.44;;;15.10;60.71
27643;BME280;15053;48.618;10.024;2023-05-19T08:28:30;94631.31;;;15.13;60.24
27643;BME280;15053;48.618;10.024;2023-05-19T08:30:57;94619.91;;;15.26;59.82
27643;BME280;15053;48.618;10.024;2023-05-19T08:33:23;94627.34;;;15.32;59.57
27643;BME280;15053;48.618;10.024;2023-05-19T08:35:50;94623.00;;;15.36;59.60
27643;BME280;15053;48.618;10.024;2023-05-19T08:38:17;94620.50;;;15.23;59.02
27643;BME280;15053;48.618;10.024;2023-05-19T08:40:45;94630.19;;;15.05;58.63
27643;BME280;15053;48.618;10.024;2023-05-19T08:43:12;94619.81;;;14.92;58.72
27643;BME280;15053;48.618;10.024;2023-05-19T08:45:43;94613.63;;;14.88;59.30
27643;BME280;15053;48.618;10.024;2023-05-19T08:48:12;94621.78;;;14.86;58.90
27643;BME280;15053;48.618;10.024;2023-05-19T08:50:45;94615.13;;;14.71;58.03
27643;BME280;15053;48.618;10.024;2023-05-19T08:53:26;94608.16;;;14.67;58.79
27643;BME280;15053;48.618;10.024;2023-05-19T08:56:07;94615.38;;;14.61;58.41
27643;BME280;15053;48.618;10.024;2023-05-19T08:58:38;94616.16;;;14.62;58.75
27643;BME280;15053;48.618;10.024;2023-05-19T09:01:06;94620.03;;;14.64;58.96
27643;BME280;15053;48.618;10.024;2023-05-19T09:03:34;94614.03;;;14.64;58.95
27643;BME280;15053;48.618;10.024;2023-05-19T09:06:06;94613.84;;;14.60;58.22
27643;BME280;15053;48.618;10.024;2023-05-19T09:08:34;94622.59;;;14.56;58.66
27643;BME280;15053;48.618;10.024;2023-05-19T09:11:01;94613.81;;;14.52;59.10
27643;BME280;15053;48.618;10.024;2023-05-19T09:13:27;94607.16;;;14.46;58.92
27643;BME280;15053;48.618;10.024;2023-05-19T09:15:57;94615.16;;;14.41;59.07
27643;BME280;15053;48.618;10.024;2023-05-19T09:18:25;94616.69;;;14.42;59.21
27643;BME280;15053;48.618;10.024;2023-05-19T09:20:57;94606.19;;;14.33;58.86
27643;BME280;15053;48.618;10.024;2023-05-19T09:23:30;94608.94;;;14.37;59.00
27643;BME280;15053;48.618;10.024;2023-05-19T09:26:00;94610.50;;;14.38;59.33
27643;BME280;15053;48.618;10.024;2023-05-19T09:28:31;94615.31;;;14.44;59.22
27643;BME280;15053;48.618;10.024;2023-05-19T09:30:59;94608.84;;;14.50;58.62
27643;BME280;15053;48.618;10.024;2023-05-19T09:33:27;94605.47;;;14.50;58.64
27643;BME280;15053;48.618;10.024;2023-05-19T09:35:54;94610.22;;;14.48;58.87
27643;BME280;15053;48.618;10.024;2023-05-19T09:38:27;94613.25;;;14.33;59.40
27643;BME280;15053;48.618;10.024;2023-05-19T09:40:55;94608.84;;;14.19;59.73
27643;BME280;15053;48.618;10.024;2023-05-19T09:43:23;94604.34;;;14.11;60.64
27643;BME280;15053;48.618;10.024;2023-05-19T09:46:05;94603.25;;;14.12;60.54
27643;BME280;15053;48.618;10.024;2023-05-19T09:48:33;94611.75;;;14.18;61.07
27643;BME280;15053;48.618;10.024;2023-05-19T09:51:03;94606.34;;;14.14;60.43
27643;BME280;15053;48.618;10.024;2023-05-19T09:53:33;94608.06;;;14.19;60.55
27643;BME280;15053;48.618;10.024;2023-05-19T09:56:00;94599.94;;;14.29;60.53
27643;BME280;15053;48.618;10.024;2023-05-19T09:58:31;94596.66;;;14.46;60.19
27643;BME280;15053;48.618;10.024;2023-05-19T10:01:00;94597.16;;;14.56;59.98
27643;BME280;15053;48.618;10.024;2023-05-19T10:03:28;94601.47;;;14.52;59.22
27643;BME280;15053;48.618;10.024;2023-05-19T10:05:56;94595.56;;;14.38;59.84
27643;BME280;15053;48.618;10.024;2023-05-19T10:08:23;94599.09;;;14.34;59.68
27643;BME280;15053;48.618;10.024;2023-05-19T10:10:52;94592.75;;;14.35;60.02
27643;BME280;15053;48.618;10.024;2023-05-19T10:13:20;94603.09;;;14.40;60.27
27643;BME280;15053;48.618;10.024;2023-05-19T10:15:48;94606.03;;;14.38;59.36
27643;BME280;15053;48.618;10.024;2023-05-19T10:18:25;94603.41;;;14.38;59.39
27643;BME280;15053;48.618;10.024;2023-05-19T10:20:53;94604.66;;;14.41;59.92
27643;BME280;15053;48.618;10.024;2023-05-19T10:23:19;94594.78;;;14.38;59.43
27643;BME280;15053;48.618;10.024;2023-05-19T10:25:46;94602.28;;;14.31;59.63
27643;BME280;15053;48.618;10.024;2023-05-19T10:28:16;94604.34;;;14.34;59.80
27643;BME280;15053;48.618;10.024;2023-05-19T10:30:48;94608.72;;;14.25;59.56
27643;BME280;15053;48.618;10.024;2023-05-19T10:33:17;94606.47;;;14.09;59.82
27643;BME280;15053;48.618;10.024;2023-05-19T10:36:08;94605.47;;;13.97;60.37
27643;BME280;15053;48.618;10.024;2023-05-19T10:38:47;94602.59;;;13.85;61.12
27643;BME280;15053;48.618;10.024;2023-05-19T10:44:34;94598.69;;;13.74;61.92
27643;BME280;15053;48.618;10.024;2023-05-19T10:47:06;94608.69;;;13.72;62.76
27643;BME280;15053;48.618;10.024;2023-05-19T10:49:35;94607.63;;;13.73;62.84
27643;BME280;15053;48.618;10.024;2023-05-19T10:52:02;94609.81;;;13.79;62.52
27643;BME280;15053;48.618;10.024;2023-05-19T10:54:39;94610.88;;;13.78;63.19
27643;BME280;15053;48.618;10.024;2023-05-19T10:57:15;94609.34;;;13.77;62.91
27643;BME280;15053;48.618;10.024;2023-05-19T10:59:42;94604.09;;;13.77;62.65
27643;BME280;15053;48.618;10.024;2023-05-19T11:02:38;94613.66;;;13.82;63.14
27643;BME280;15053;48.618;10.024;2023-05-19T11:05:13;94604.75;;;13.83;62.84
27643;BME280;15053;48.618;10.024;2023-05-19T11:07:41;94610.19;;;13.86;62.61
27643;BME280;15053;48.618;10.024;2023-05-19T11:10:09;94607.56;;;13.86;62.43
27643;BME280;15053;48.618;10.024;2023-05-19T11:12:41;94609.22;;;13.82;62.39
27643;BME280;15053;48.618;10.024;2023-05-19T11:15:12;94613.50;;;13.78;62.59
27643;BME280;15053;48.618;10.024;2023-05-19T11:17:40;94613.31;;;13.75;62.63
27643;BME280;15053;48.618;10.024;2023-05-19T11:20:21;94611.09;;;13.68;62.98
27643;BME280;15053;48.618;10.024;2023-05-19T11:23:04;94608.41;;;13.73;63.34
27643;BME280;15053;48.618;10.024;2023-05-19T11:25:45;94601.66;;;13.81;63.18
27643;BME280;15053;48.618;10.024;2023-05-19T11:28:17;94602.78;;;13.88;63.26
27643;BME280;15053;48.618;10.024;2023-05-19T11:30:46;94606.31;;;13.84;62.77
27643;BME280;15053;48.618;10.024;2023-05-19T11:33:16;94603.97;;;13.82;62.57
27643;BME280;15053;48.618;10.024;2023-05-19T11:35:46;94603.03;;;13.78;63.10
27643;BME280;15053;48.618;10.024;2023-05-19T11:38:16;94608.28;;;13.78;62.92
27643;BME280;15053;48.618;10.024;2023-05-19T11:40:44;94613.00;;;13.76;62.97
27643;BME280;15053;48.618;10.024;2023-05-19T11:43:10;94612.41;;;13.79;62.98
27643;BME280;15053;48.618;10.024;2023-05-19T11:45:37;94617.72;;;13.88;63.48
27643;BME280;15053;48.618;10.024;2023-05-19T11:48:04;94604.09;;;13.99;63.37
27643;BME280;15053;48.618;10.024;2023-05-19T11:50:31;94605.22;;;14.07;63.35
27643;BME280;15053;48.618;10.024;2023-05-19T11:52:59;94602.31;;;14.08;62.73
27643;BME280;15053;48.618;10.024;2023-05-19T11:55:26;94602.44;;;14.03;63.45
27643;BME280;15053;48.618;10.024;2023-05-19T11:58:00;94600.50;;;13.95;62.89
27643;BME280;15053;48.618;10.024;2023-05-19T12:00:34;94604.81;;;13.91;62.89
27643;BME280;15053;48.618;10.024;2023-05-19T12:03:05;94607.09;;;13.84;63.51
27643;BME280;15053;48.618;10.024;2023-05-19T12:05:35;94607.50;;;13.78;63.86
27643;BME280;15053;48.618;10.024;2023-05-19T12:08:08;94609.66;;;13.76;64.27
27643;BME280;15053;48.618;10.024;2023-05-19T12:10:35;94610.38;;;13.76;64.33
27643;BME280;15053;48.618;10.024;2023-05-19T12:13:02;94607.69;;;13.81;64.14
27643;BME280;15053;48.618;10.024;2023-05-19T12:15:30;94602.44;;;13.81;64.15
27643;BME280;15053;48.618;10.024;2023-05-19T12:17:58;94604.16;;;13.86;64.60
27643;BME280;15053;48.618;10.024;2023-05-19T12:20:26;94602.97;;;13.92;63.86
27643;BME280;15053;48.618;10.024;2023-05-19T12:22:54;94593.81;;;14.03;64.13
27643;BME280;15053;48.618;10.024;2023-05-19T12:25:22;94591.25;;;14.11;63.73
27643;BME280;15053;48.618;10.024;2023-05-19T12:27:49;94595.25;;;14.17;63.50
27643;BME280;15053;48.618;10.024;2023-05-19T12:30:25;94592.53;;;14.23;63.46
27643;BME280;15053;48.618;10.024;2023-05-19T12:32:52;94586.84;;;14.29;62.99
27643;BME280;15053;48.618;10.024;2023-05-19T12:35:19;94592.88;;;14.30;62.90
27643;BME280;15053;48.618;10.024;2023-05-19T12:37:48;94590.13;;;14.35;63.15
27643;BME280;15053;48.618;10.024;2023-05-19T12:40:16;94590.31;;;14.38;63.12
27643;BME280;15053;48.618;10.024;2023-05-19T12:42:46;94588.28;;;14.35;62.69
27643;BME280;15053;48.618;10.024;2023-05-19T12:45:13;94581.22;;;14.36;62.83
27643;BME280;15053;48.618;10.024;2023-05-19T12:47:40;94580.63;;;14.39;62.66
27643;BME280;15053;48.618;10.024;2023-05-19T12:50:08;94577.25;;;14.47;62.78
27643;BME280;15053;48.618;10.024;2023-05-19T12:52:46;94584.25;;;14.60;62.37
27643;BME280;15053;48.618;10.024;2023-05-19T12:55:13;94576.22;;;14.65;61.86
27643;BME280;15053;48.618;10.024;2023-05-19T12:57:43;94583.94;;;14.70;62.57
27643;BME280;15053;48.618;10.024;2023-05-19T13:00:14;94581.94;;;14.67;62.09
27643;BME280;15053;48.618;10.024;2023-05-19T13:03:02;94581.94;;;14.67;62.27
27643;BME280;15053;48.618;10.024;2023-05-19T13:05:33;94585.66;;;14.66;62.30
27643;BME280;15053;48.618;10.024;2023-05-19T13:08:03;94584.56;;;14.67;62.50
27643;BME280;15053;48.618;10.024;2023-05-19T13:10:31;94572.41;;;14.71;62.30